Αναφορές Αεροδρομίων

 

KSJC - San Jose, California, USA
Distance from station: ΒΑ 14km
Ενημερώθηκε: 26/01/2021 19:53
Μερικώς νεφελώδης
Μερικώς νεφελώδης
 Ανεμος από ΝΑ
Ανεμος: ΝΑ 17 km/h
Θερμοκρασία: 8°C
Wind Chill: 5°C
Σημείο Δρόσου: 1°C
Υγρασία: 62%
Βαρόμετρο: 1016.3 hPa
Clouds: Μερικώς νεφελώδης
Visibility: 16 km
Cloud details: Few Clouds 1158 m
Μερικώς νεφελώδης 3048 m
2021/01/26 17:53 KSJC 261753Z 14009KT 10SM FEW038 SCT100 08/01 A3001 RMK AO2 SLP161 T00780011 10078 20000 53011
KNUQ - Moffett Nas/Mtn, California, USA
Distance from station: Β 14km
Ενημερώθηκε: 26/01/2021 20:30
Few Clouds
Few Clouds
 Ανεμος από ΝΑ
Ανεμος: ΝΑ 15 km/h
Θερμοκρασία: 9°C
Wind Chill: 7°C
Σημείο Δρόσου: 1°C
Υγρασία: 58%
Βαρόμετρο: 1016.6 hPa
Clouds: Few Clouds
Visibility: 16 km
Cloud details: Few Clouds 3353 m
2021/01/26 18:30 KNUQ 261830Z AUTO 13008KT 10SM FEW110 09/01 A3002 RMK AO2
 
KPAO - Palo Alto, California, USA
Distance from station: ΒΒΔ 23km
Ενημερώθηκε: 26/01/2021 19:47
Αίθριος
Αίθριος
 Ανεμος από ΝΑ
Ανεμος: ΝΑ 15 km/h
Θερμοκρασία: 8°C
Wind Chill: 5°C
Σημείο Δρόσου: 1°C
Υγρασία: 62%
Βαρόμετρο: 1016.3 hPa
Clouds: Αίθριος
Visibility: 16 km
2021/01/26 17:47 KPAO 261747Z 13008KT 10SM SKC 08/01 A3001
KRHV - San Jose/Reid, California, USA
Distance from station: ΑΒΑ 19km
Ενημερώθηκε: 26/01/2021 19:45

 Ανεμος από ΝΑ
Ανεμος: ΝΑ 19 km/h
Θερμοκρασία: 8°C
Wind Chill: 4°C
Σημείο Δρόσου: 1°C
Υγρασία: 62%
Βαρόμετρο: 1016.6 hPa
Visibility: 16 km
2021/01/26 17:45 KRHV 261745Z 13010KT 10SM 08/01 A3002
 
KOAK - Oakland, California, USA
Distance from station: ΒΒΔ 50km
Ενημερώθηκε: 26/01/2021 19:53
Few Clouds
Few Clouds
 Ανεμος από ΝΑ
Ανεμος: ΝΑ 19 km/h
Θερμοκρασία: 9°C
Wind Chill: 6°C
Σημείο Δρόσου: 2°C
Υγρασία: 62%
Βαρόμετρο: 1015.9 hPa
Clouds: Few Clouds
Visibility: 16 km
Cloud details: Few Clouds 244 m
Few Clouds 6096 m
2021/01/26 17:53 KOAK 261753Z 14010KT 10SM FEW008 FEW200 09/02 A3000 RMK AO2 SLP159 T00890022 10094 20011 53012
KSQL - San Carlos Airpo, California, USA
Distance from station: ΒΔ 34km
Ενημερώθηκε: 26/01/2021 19:47
Αίθριος
Αίθριος
 Ανεμος από Α
Ανεμος: Α 11 km/h
Θερμοκρασία: 8°C
Wind Chill: 6°C
Σημείο Δρόσου: 3°C
Υγρασία: 71%
Βαρόμετρο: 1015.9 hPa
Clouds: Αίθριος
Visibility: 16 km
2021/01/26 17:47 KSQL 261747Z 08006KT 10SM SKC 08/03 A3000
 
KSFO - San Francisco, California, USA
Distance from station: ΒΔ 49km
Ενημερώθηκε: 26/01/2021 19:56
Few Clouds
Few Clouds
 Ανεμος από calm
Ανεμος: Απνοια
Θερμοκρασία: 11°C
Σημείο Δρόσου: 2°C
Υγρασία: 54%
Βαρόμετρο: 1015.2 hPa
Clouds: Few Clouds
Visibility: 16 km
Cloud details: Few Clouds 6096 m
2021/01/26 17:56 KSFO 261756Z 00000KT 10SM FEW200 11/02 A2998 RMK AO2 SLP153 T01060022 10106 20039 52010
KE16 - San Martin, California, USA
Distance from station: ΑΝΑ 43km
Ενημερώθηκε: 26/01/2021 20:15
Αίθριος
Αίθριος
 Ανεμος από ΝΝΑ
Ανεμος: ΝΝΑ 15 km/h
Θερμοκρασία: 5°C
Wind Chill: 2°C
Σημείο Δρόσου: 0°C
Υγρασία: 70%
Βαρόμετρο: 1017.6 hPa
Clouds: Αίθριος
Visibility: 16 km
2021/01/26 18:15 KE16 261815Z AUTO 15008KT 10SM CLR 05/00 A3005 RMK AO2
 
KWVI - Watsonville, California, USA
Distance from station: ΝΝΑ 44km
Ενημερώθηκε: 26/01/2021 19:53
Αίθριος
Αίθριος
 Ανεμος από calm
Ανεμος: Απνοια
Θερμοκρασία: 7°C
Σημείο Δρόσου: 2°C
Υγρασία: 71%
Βαρόμετρο: 1017.3 hPa
Clouds: Αίθριος
Visibility: 16 km
2021/01/26 17:53 KWVI 261753Z AUTO 00000KT 10SM CLR 07/02 A3004 RMK AO2 SLP173 T00670017 10072 21011 53016
KHAF - Half Moon Bay, California, USA
Distance from station: ΔΒΔ 50km
Ενημερώθηκε: 26/01/2021 20:35
Μερικώς νεφελώδης
Μερικώς νεφελώδης
 Ανεμος από ΝΝΑ
Ανεμος: ΝΝΑ 13 km/h
Θερμοκρασία: 9°C
Wind Chill: 7°C
Σημείο Δρόσου: 4°C
Υγρασία: 71%
Βαρόμετρο: 1015.9 hPa
Clouds: Μερικώς νεφελώδης
Visibility: 11 km
Cloud details: Few Clouds 732 m
Μερικώς νεφελώδης 3353 m
2021/01/26 18:35 KHAF 261835Z AUTO 15007KT 7SM FEW024 SCT110 09/04 A3000 RMK AO2
 
KHWD - Hayward, California, USA
Distance from station: Β 44km
Ενημερώθηκε: 26/01/2021 19:54
Αίθριος
Αίθριος
 Ανεμος από ΝΝΑ
Ανεμος: ΝΝΑ 20 km/h
Θερμοκρασία: 8°C
Wind Chill: 4°C
Σημείο Δρόσου: 1°C
Υγρασία: 62%
Βαρόμετρο: 1015.9 hPa
Clouds: Αίθριος
Visibility: 16 km
2021/01/26 17:54 KHWD 261754Z 16011KT 10SM CLR 08/01 A3000 RMK AO2 SLP167 T00780011 10078 20000 53011
KLVK - Livermore, California, USA
Distance from station: ΒΒΑ 51km
Ενημερώθηκε: 26/01/2021 19:53
Αίθριος
Αίθριος
 Ανεμος από calm
Ανεμος: Απνοια
Θερμοκρασία: 5°C
Σημείο Δρόσου: -1°C
Υγρασία: 66%
Βαρόμετρο: 1015.6 hPa
Clouds: Αίθριος
Visibility: 16 km
2021/01/26 17:53 KLVK 261753Z 00000KT 10SM CLR 05/M01 A2999 RMK AO2 SLP154 T00501006 10050 21022 53008